sensor_id;sensor_type;location;lat;lon;timestamp;pressure;altitude;pressure_sealevel;temperature;humidity
63956;BME280;50131;52.084;5.228;2022-07-29T00:02:32;101880.0;;;18.2;62.95
63956;BME280;50131;52.084;5.228;2022-07-29T00:04:19;101875.0;;;18.11;62.99
63956;BME280;50131;52.084;5.228;2022-07-29T00:06:06;101876.0;;;18.13;63.23
63956;BME280;50131;52.084;5.228;2022-07-29T00:07:53;101878.0;;;18.05;62.7
63956;BME280;50131;52.084;5.228;2022-07-29T00:09:40;101872.0;;;18.03;62.9
63956;BME280;50131;52.084;5.228;2022-07-29T00:11:27;101869.0;;;18.06;63.84
63956;BME280;50131;52.084;5.228;2022-07-29T00:15:01;101871.0;;;17.97;62.82
63956;BME280;50131;52.084;5.228;2022-07-29T00:16:48;101864.0;;;18.0;63.84
63956;BME280;50131;52.084;5.228;2022-07-29T00:18:34;101859.0;;;17.98;63.43
63956;BME280;50131;52.084;5.228;2022-07-29T00:20:20;101860.0;;;17.88;62.93
63956;BME280;50131;52.084;5.228;2022-07-29T00:22:07;101857.0;;;17.91;63.82
63956;BME280;50131;52.084;5.228;2022-07-29T00:23:54;101858.0;;;17.86;64.38
63956;BME280;50131;52.084;5.228;2022-07-29T00:27:26;101858.0;;;17.86;64.45
63956;BME280;50131;52.084;5.228;2022-07-29T00:29:12;101855.0;;;17.82;64.97
63956;BME280;50131;52.084;5.228;2022-07-29T00:30:58;101852.0;;;17.8;63.92
63956;BME280;50131;52.084;5.228;2022-07-29T00:32:44;101846.0;;;17.79;63.04
63956;BME280;50131;52.084;5.228;2022-07-29T00:37:33;101839.0;;;17.79;63.11
63956;BME280;50131;52.084;5.228;2022-07-29T00:39:19;101837.0;;;17.75;65.05
63956;BME280;50131;52.084;5.228;2022-07-29T00:41:05;101839.0;;;17.73;64.58
63956;BME280;50131;52.084;5.228;2022-07-29T00:42:52;101838.0;;;17.71;63.5
63956;BME280;50131;52.084;5.228;2022-07-29T00:46:25;101834.0;;;17.7;64.38
63956;BME280;50131;52.084;5.228;2022-07-29T00:48:12;101833.0;;;17.7;64.3
63956;BME280;50131;52.084;5.228;2022-07-29T00:49:59;101832.0;;;17.7;63.63
63956;BME280;50131;52.084;5.228;2022-07-29T00:51:47;101830.0;;;17.61;63.95
63956;BME280;50131;52.084;5.228;2022-07-29T00:53:35;101825.0;;;17.66;64.44
63956;BME280;50131;52.084;5.228;2022-07-29T00:55:22;101822.0;;;17.63;64.28
63956;BME280;50131;52.084;5.228;2022-07-29T00:58:57;101826.0;;;17.57;64.11
63956;BME280;50131;52.084;5.228;2022-07-29T01:00:44;101823.0;;;17.56;64.97
63956;BME280;50131;52.084;5.228;2022-07-29T01:02:31;101818.0;;;17.54;63.78
63956;BME280;50131;52.084;5.228;2022-07-29T01:04:18;101826.0;;;17.5;65.2
63956;BME280;50131;52.084;5.228;2022-07-29T01:06:06;101823.0;;;17.56;64.48
63956;BME280;50131;52.084;5.228;2022-07-29T01:07:55;101817.0;;;17.54;64.25
63956;BME280;50131;52.084;5.228;2022-07-29T01:11:32;101819.0;;;17.53;64.22
63956;BME280;50131;52.084;5.228;2022-07-29T01:13:20;101819.0;;;17.59;65.49
63956;BME280;50131;52.084;5.228;2022-07-29T01:15:08;101815.0;;;17.61;65.72
63956;BME280;50131;52.084;5.228;2022-07-29T01:17:02;101815.0;;;17.55;64.99
63956;BME280;50131;52.084;5.228;2022-07-29T01:19:06;101817.0;;;17.5;63.97
63956;BME280;50131;52.084;5.228;2022-07-29T01:21:31;101811.0;;;17.47;64.41
63956;BME280;50131;52.084;5.228;2022-07-29T01:24:17;101817.0;;;17.41;65.05
63956;BME280;50131;52.084;5.228;2022-07-29T01:26:52;101812.0;;;17.41;64.33
63956;BME280;50131;52.084;5.228;2022-07-29T01:30:46;101819.0;;;17.32;63.73
63956;BME280;50131;52.084;5.228;2022-07-29T01:32:37;101821.0;;;17.37;63.7
63956;BME280;50131;52.084;5.228;2022-07-29T01:34:29;101821.0;;;17.34;63.4
63956;BME280;50131;52.084;5.228;2022-07-29T01:36:25;101820.0;;;17.36;64.86
63956;BME280;50131;52.084;5.228;2022-07-29T01:38:17;101823.0;;;17.34;64.77
63956;BME280;50131;52.084;5.228;2022-07-29T01:40:11;101826.0;;;17.29;64.61
63956;BME280;50131;52.084;5.228;2022-07-29T01:42:14;101821.0;;;17.28;64.7
63956;BME280;50131;52.084;5.228;2022-07-29T01:44:10;101825.0;;;17.31;65.1
63956;BME280;50131;52.084;5.228;2022-07-29T01:46:02;101828.0;;;17.2;64.55
63956;BME280;50131;52.084;5.228;2022-07-29T01:47:57;101825.0;;;17.16;64.6
63956;BME280;50131;52.084;5.228;2022-07-29T01:49:51;101824.0;;;17.14;65.22
63956;BME280;50131;52.084;5.228;2022-07-29T01:53:46;101830.0;;;17.18;66.36
63956;BME280;50131;52.084;5.228;2022-07-29T01:55:40;101827.0;;;17.22;65.2
63956;BME280;50131;52.084;5.228;2022-07-29T01:57:31;101823.0;;;17.14;64.77
63956;BME280;50131;52.084;5.228;2022-07-29T01:59:20;101825.0;;;17.11;64.08
63956;BME280;50131;52.084;5.228;2022-07-29T02:01:08;101826.0;;;17.09;64.11
63956;BME280;50131;52.084;5.228;2022-07-29T02:02:58;101824.0;;;17.07;64.97
63956;BME280;50131;52.084;5.228;2022-07-29T02:04:49;101822.0;;;17.07;64.47
63956;BME280;50131;52.084;5.228;2022-07-29T02:06:38;101824.0;;;17.03;64.33
63956;BME280;50131;52.084;5.228;2022-07-29T02:10:18;101819.0;;;17.03;64.67
63956;BME280;50131;52.084;5.228;2022-07-29T02:12:08;101819.0;;;17.0;64.37
63956;BME280;50131;52.084;5.228;2022-07-29T02:14:00;101818.0;;;16.97;64.86
63956;BME280;50131;52.084;5.228;2022-07-29T02:15:48;101820.0;;;16.93;64.33
63956;BME280;50131;52.084;5.228;2022-07-29T02:17:40;101820.0;;;17.03;64.94
63956;BME280;50131;52.084;5.228;2022-07-29T02:19:31;101819.0;;;17.0;65.72
63956;BME280;50131;52.084;5.228;2022-07-29T02:21:21;101816.0;;;17.0;65.62
63956;BME280;50131;52.084;5.228;2022-07-29T02:23:10;101813.0;;;16.95;65.81
63956;BME280;50131;52.084;5.228;2022-07-29T02:26:47;101815.0;;;16.89;65.58
63956;BME280;50131;52.084;5.228;2022-07-29T02:28:36;101817.0;;;16.93;65.63
63956;BME280;50131;52.084;5.228;2022-07-29T02:30:23;101815.0;;;16.89;65.5
63956;BME280;50131;52.084;5.228;2022-07-29T02:32:13;101817.0;;;16.93;65.45
63956;BME280;50131;52.084;5.228;2022-07-29T02:34:03;101817.0;;;16.93;65.47
63956;BME280;50131;52.084;5.228;2022-07-29T02:35:52;101817.0;;;16.95;67.09
63956;BME280;50131;52.084;5.228;2022-07-29T02:39:29;101818.0;;;16.95;66.05
63956;BME280;50131;52.084;5.228;2022-07-29T02:41:20;101810.0;;;16.86;64.99
63956;BME280;50131;52.084;5.228;2022-07-29T02:43:09;101808.0;;;16.86;65.16
63956;BME280;50131;52.084;5.228;2022-07-29T02:44:57;101807.0;;;16.84;65.35
63956;BME280;50131;52.084;5.228;2022-07-29T02:46:47;101805.0;;;16.81;65.05
63956;BME280;50131;52.084;5.228;2022-07-29T02:48:38;101808.0;;;16.89;65.91
63956;BME280;50131;52.084;5.228;2022-07-29T02:50:32;101813.0;;;16.88;65.89
63956;BME280;50131;52.084;5.228;2022-07-29T02:54:20;101809.0;;;16.89;67.59
63956;BME280;50131;52.084;5.228;2022-07-29T02:56:13;101806.0;;;16.84;66.88
63956;BME280;50131;52.084;5.228;2022-07-29T02:58:02;101807.0;;;16.84;66.39
63956;BME280;50131;52.084;5.228;2022-07-29T02:59:53;101806.0;;;16.93;66.59
63956;BME280;50131;52.084;5.228;2022-07-29T03:01:44;101805.0;;;16.88;67.22
63956;BME280;50131;52.084;5.228;2022-07-29T03:03:34;101803.0;;;16.84;67.33
63956;BME280;50131;52.084;5.228;2022-07-29T03:05:22;101803.0;;;16.88;67.41
63956;BME280;50131;52.084;5.228;2022-07-29T03:07:10;101799.0;;;16.8;67.16
63956;BME280;50131;52.084;5.228;2022-07-29T03:10:48;101797.0;;;16.86;67.38
63956;BME280;50131;52.084;5.228;2022-07-29T03:12:35;101801.0;;;16.84;67.97
63956;BME280;50131;52.084;5.228;2022-07-29T03:14:23;101801.0;;;16.84;67.8
63956;BME280;50131;52.084;5.228;2022-07-29T03:16:10;101798.0;;;16.9;68.2
63956;BME280;50131;52.084;5.228;2022-07-29T03:17:59;101793.0;;;16.86;67.52
63956;BME280;50131;52.084;5.228;2022-07-29T03:19:46;101791.0;;;16.88;67.83
63956;BME280;50131;52.084;5.228;2022-07-29T03:23:23;101790.0;;;16.89;67.35
63956;BME280;50131;52.084;5.228;2022-07-29T03:25:11;101789.0;;;16.86;66.83
63956;BME280;50131;52.084;5.228;2022-07-29T03:27:00;101789.0;;;16.79;66.14
63956;BME280;50131;52.084;5.228;2022-07-29T03:28:46;101784.0;;;16.89;67.23
63956;BME280;50131;52.084;5.228;2022-07-29T03:30:33;101784.0;;;16.88;67.84
63956;BME280;50131;52.084;5.228;2022-07-29T03:32:20;101782.0;;;16.87;67.13
63956;BME280;50131;52.084;5.228;2022-07-29T03:35:52;101782.0;;;16.78;66.47
63956;BME280;50131;52.084;5.228;2022-07-29T03:37:38;101780.0;;;16.91;67.13
63956;BME280;50131;52.084;5.228;2022-07-29T03:39:27;101781.0;;;16.93;67.52
63956;BME280;50131;52.084;5.228;2022-07-29T03:41:18;101780.0;;;16.9;66.77
63956;BME280;50131;52.084;5.228;2022-07-29T03:43:08;101778.0;;;16.91;67.34
63956;BME280;50131;52.084;5.228;2022-07-29T03:44:57;101776.0;;;16.86;67.11
63956;BME280;50131;52.084;5.228;2022-07-29T03:48:36;101774.0;;;16.84;67.41
63956;BME280;50131;52.084;5.228;2022-07-29T03:50:25;101772.0;;;16.87;67.22
63956;BME280;50131;52.084;5.228;2022-07-29T03:52:13;101775.0;;;16.86;67.56
63956;BME280;50131;52.084;5.228;2022-07-29T03:54:00;101774.0;;;16.87;67.77
63956;BME280;50131;52.084;5.228;2022-07-29T03:55:52;101776.0;;;16.86;66.69
63956;BME280;50131;52.084;5.228;2022-07-29T03:57:40;101777.0;;;16.88;67.45
63956;BME280;50131;52.084;5.228;2022-07-29T03:59:30;101777.0;;;16.86;67.3
63956;BME280;50131;52.084;5.228;2022-07-29T04:03:08;101774.0;;;16.77;66.85
63956;BME280;50131;52.084;5.228;2022-07-29T04:04:55;101773.0;;;16.79;68.31
63956;BME280;50131;52.084;5.228;2022-07-29T04:06:43;101773.0;;;16.82;68.19
63956;BME280;50131;52.084;5.228;2022-07-29T04:08:31;101774.0;;;16.87;67.69
63956;BME280;50131;52.084;5.228;2022-07-29T04:10:19;101774.0;;;16.86;67.41
63956;BME280;50131;52.084;5.228;2022-07-29T04:12:05;101773.0;;;16.86;67.62
63956;BME280;50131;52.084;5.228;2022-07-29T04:15:39;101771.0;;;16.86;67.45
63956;BME280;50131;52.084;5.228;2022-07-29T04:17:25;101770.0;;;16.84;66.69
63956;BME280;50131;52.084;5.228;2022-07-29T04:19:11;101772.0;;;16.89;66.91
63956;BME280;50131;52.084;5.228;2022-07-29T04:21:00;101769.0;;;16.88;66.55
63956;BME280;50131;52.084;5.228;2022-07-29T04:22:47;101769.0;;;16.91;67.1
63956;BME280;50131;52.084;5.228;2022-07-29T04:24:34;101770.0;;;16.9;66.3
63956;BME280;50131;52.084;5.228;2022-07-29T04:28:08;101765.0;;;16.82;66.81
63956;BME280;50131;52.084;5.228;2022-07-29T04:29:56;101764.0;;;16.84;67.28
63956;BME280;50131;52.084;5.228;2022-07-29T04:31:42;101766.0;;;16.82;66.83
63956;BME280;50131;52.084;5.228;2022-07-29T04:33:29;101766.0;;;16.87;67.42
63956;BME280;50131;52.084;5.228;2022-07-29T04:35:15;101767.0;;;16.93;67.27
63956;BME280;50131;52.084;5.228;2022-07-29T04:37:01;101770.0;;;16.96;67.36
63956;BME280;50131;52.084;5.228;2022-07-29T04:40:36;101769.0;;;17.02;67.27
63956;BME280;50131;52.084;5.228;2022-07-29T04:42:22;101774.0;;;16.96;66.95
63956;BME280;50131;52.084;5.228;2022-07-29T04:44:08;101778.0;;;16.91;66.77
63956;BME280;50131;52.084;5.228;2022-07-29T04:45:55;101775.0;;;16.93;67.24
63956;BME280;50131;52.084;5.228;2022-07-29T04:47:41;101777.0;;;16.91;66.61
63956;BME280;50131;52.084;5.228;2022-07-29T04:51:14;101781.0;;;17.0;66.72
63956;BME280;50131;52.084;5.228;2022-07-29T04:53:02;101781.0;;;16.86;67.08
63956;BME280;50131;52.084;5.228;2022-07-29T04:54:48;101790.0;;;16.95;66.87
63956;BME280;50131;52.084;5.228;2022-07-29T04:56:35;101785.0;;;17.0;66.49
63956;BME280;50131;52.084;5.228;2022-07-29T04:58:23;101783.0;;;16.95;67.74
63956;BME280;50131;52.084;5.228;2022-07-29T05:00:10;101785.0;;;17.0;66.91
63956;BME280;50131;52.084;5.228;2022-07-29T05:03:44;101783.0;;;17.02;67.69
63956;BME280;50131;52.084;5.228;2022-07-29T05:05:30;101781.0;;;17.03;68.8
63956;BME280;50131;52.084;5.228;2022-07-29T05:07:17;101780.0;;;17.03;67.42
63956;BME280;50131;52.084;5.228;2022-07-29T05:09:04;101782.0;;;17.02;69.06
63956;BME280;50131;52.084;5.228;2022-07-29T05:10:51;101783.0;;;17.04;68.72
63956;BME280;50131;52.084;5.228;2022-07-29T05:12:37;101780.0;;;17.13;66.8
63956;BME280;50131;52.084;5.228;2022-07-29T05:16:10;101781.0;;;17.09;67.2
63956;BME280;50131;52.084;5.228;2022-07-29T05:17:56;101780.0;;;17.09;67.81
63956;BME280;50131;52.084;5.228;2022-07-29T05:19:42;101777.0;;;17.16;67.66
63956;BME280;50131;52.084;5.228;2022-07-29T05:21:30;101773.0;;;17.14;67.39
63956;BME280;50131;52.084;5.228;2022-07-29T05:23:16;101776.0;;;17.2;67.1
63956;BME280;50131;52.084;5.228;2022-07-29T05:26:50;101773.0;;;17.22;67.62
63956;BME280;50131;52.084;5.228;2022-07-29T05:28:36;101778.0;;;17.25;67.81
63956;BME280;50131;52.084;5.228;2022-07-29T05:30:24;101780.0;;;17.18;66.33
63956;BME280;50131;52.084;5.228;2022-07-29T05:32:11;101783.0;;;17.18;66.95
63956;BME280;50131;52.084;5.228;2022-07-29T05:33:58;101787.0;;;17.21;68.47
63956;BME280;50131;52.084;5.228;2022-07-29T05:35:44;101781.0;;;17.27;67.24
63956;BME280;50131;52.084;5.228;2022-07-29T05:39:17;101786.0;;;17.25;65.5
63956;BME280;50131;52.084;5.228;2022-07-29T05:41:04;101785.0;;;17.27;66.31
63956;BME280;50131;52.084;5.228;2022-07-29T05:42:51;101791.0;;;17.27;67.58
63956;BME280;50131;52.084;5.228;2022-07-29T05:44:38;101786.0;;;17.32;67.81
63956;BME280;50131;52.084;5.228;2022-07-29T05:46:25;101800.0;;;17.27;67.05
63956;BME280;50131;52.084;5.228;2022-07-29T05:48:12;101803.0;;;17.32;67.25
63956;BME280;50131;52.084;5.228;2022-07-29T05:51:44;101805.0;;;17.37;67.34
63956;BME280;50131;52.084;5.228;2022-07-29T05:53:31;101806.0;;;17.3;67.52
63956;BME280;50131;52.084;5.228;2022-07-29T05:55:18;101805.0;;;17.31;66.87
63956;BME280;50131;52.084;5.228;2022-07-29T05:57:05;101805.0;;;17.36;67.72
63956;BME280;50131;52.084;5.228;2022-07-29T05:58:52;101800.0;;;17.34;67.02
63956;BME280;50131;52.084;5.228;2022-07-29T06:02:26;101803.0;;;17.34;67.75
63956;BME280;50131;52.084;5.228;2022-07-29T06:04:12;101800.0;;;17.3;68.33
63956;BME280;50131;52.084;5.228;2022-07-29T06:05:59;101797.0;;;17.38;67.59
63956;BME280;50131;52.084;5.228;2022-07-29T06:07:46;101795.0;;;17.43;67.44
63956;BME280;50131;52.084;5.228;2022-07-29T06:09:32;101791.0;;;17.43;68.02
63956;BME280;50131;52.084;5.228;2022-07-29T06:11:19;101789.0;;;17.45;67.17
63956;BME280;50131;52.084;5.228;2022-07-29T06:14:51;101793.0;;;17.45;68.28
63956;BME280;50131;52.084;5.228;2022-07-29T06:16:37;101793.0;;;17.5;68.3
63956;BME280;50131;52.084;5.228;2022-07-29T06:18:24;101798.0;;;17.53;67.62
63956;BME280;50131;52.084;5.228;2022-07-29T06:20:10;101801.0;;;17.46;66.1
63956;BME280;50131;52.084;5.228;2022-07-29T06:21:57;101805.0;;;17.46;66.86
63956;BME280;50131;52.084;5.228;2022-07-29T06:23:45;101800.0;;;17.52;66.92
63956;BME280;50131;52.084;5.228;2022-07-29T06:27:20;101806.0;;;17.46;67.11
63956;BME280;50131;52.084;5.228;2022-07-29T06:29:07;101811.0;;;17.53;67.25
63956;BME280;50131;52.084;5.228;2022-07-29T06:30:55;101811.0;;;17.56;66.89
63956;BME280;50131;52.084;5.228;2022-07-29T06:32:42;101816.0;;;17.53;67.86
63956;BME280;50131;52.084;5.228;2022-07-29T06:34:28;101813.0;;;17.54;68.19
63956;BME280;50131;52.084;5.228;2022-07-29T06:38:02;101819.0;;;17.53;67.67
63956;BME280;50131;52.084;5.228;2022-07-29T06:41:00;101822.0;;;17.59;67.95
63956;BME280;50131;52.084;5.228;2022-07-29T06:42:46;101827.0;;;17.71;67.91
63956;BME280;50131;52.084;5.228;2022-07-29T06:46:21;101827.0;;;17.87;67.97
63956;BME280;50131;52.084;5.228;2022-07-29T06:48:08;101830.0;;;17.93;66.72
63956;BME280;50131;52.084;5.228;2022-07-29T06:49:55;101832.0;;;17.96;66.16
63956;BME280;50131;52.084;5.228;2022-07-29T06:51:41;101832.0;;;18.02;63.86
63956;BME280;50131;52.084;5.228;2022-07-29T06:53:28;101841.0;;;18.16;63.41
63956;BME280;50131;52.084;5.228;2022-07-29T06:55:16;101838.0;;;18.16;63.48
63956;BME280;50131;52.084;5.228;2022-07-29T06:58:48;101840.0;;;18.18;64.19
63956;BME280;50131;52.084;5.228;2022-07-29T07:00:34;101837.0;;;18.34;62.6
63956;BME280;50131;52.084;5.228;2022-07-29T07:02:21;101843.0;;;18.47;64.45
63956;BME280;50131;52.084;5.228;2022-07-29T07:04:10;101838.0;;;18.5;65.1
63956;BME280;50131;52.084;5.228;2022-07-29T07:05:56;101842.0;;;18.43;64.34
63956;BME280;50131;52.084;5.228;2022-07-29T07:07:43;101839.0;;;18.55;62.68
63956;BME280;50131;52.084;5.228;2022-07-29T07:11:15;101842.0;;;18.59;61.7
63956;BME280;50131;52.084;5.228;2022-07-29T07:13:01;101840.0;;;18.68;61.19
63956;BME280;50131;52.084;5.228;2022-07-29T07:14:49;101840.0;;;18.5;61.7
63956;BME280;50131;52.084;5.228;2022-07-29T07:16:36;101839.0;;;18.45;62.71
63956;BME280;50131;52.084;5.228;2022-07-29T07:18:22;101841.0;;;18.53;61.72
63956;BME280;50131;52.084;5.228;2022-07-29T07:21:55;101839.0;;;18.54;61.13
63956;BME280;50131;52.084;5.228;2022-07-29T07:23:42;101843.0;;;18.56;61.06
63956;BME280;50131;52.084;5.228;2022-07-29T07:25:28;101843.0;;;18.54;61.44
63956;BME280;50131;52.084;5.228;2022-07-29T07:27:14;101845.0;;;18.59;63.14
63956;BME280;50131;52.084;5.228;2022-07-29T07:29:01;101848.0;;;18.59;65.16
63956;BME280;50131;52.084;5.228;2022-07-29T07:30:47;101852.0;;;18.66;62.0
63956;BME280;50131;52.084;5.228;2022-07-29T07:34:21;101845.0;;;18.66;62.92
63956;BME280;50131;52.084;5.228;2022-07-29T07:36:07;101843.0;;;18.75;62.08
63956;BME280;50131;52.084;5.228;2022-07-29T07:37:53;101835.0;;;18.81;62.98
63956;BME280;50131;52.084;5.228;2022-07-29T07:39:41;101835.0;;;18.86;62.9
63956;BME280;50131;52.084;5.228;2022-07-29T07:41:28;101836.0;;;18.78;60.96
63956;BME280;50131;52.084;5.228;2022-07-29T07:43:14;101835.0;;;18.7;62.32
63956;BME280;50131;52.084;5.228;2022-07-29T07:46:46;101828.0;;;18.75;61.99
63956;BME280;50131;52.084;5.228;2022-07-29T07:48:34;101821.0;;;18.77;62.31
63956;BME280;50131;52.084;5.228;2022-07-29T07:50:21;101815.0;;;18.75;61.98
63956;BME280;50131;52.084;5.228;2022-07-29T07:52:07;101816.0;;;18.86;62.11
63956;BME280;50131;52.084;5.228;2022-07-29T07:53:54;101812.0;;;18.86;62.75
63956;BME280;50131;52.084;5.228;2022-07-29T07:57:29;101809.0;;;18.93;63.95
63956;BME280;50131;52.084;5.228;2022-07-29T07:59:16;101805.0;;;18.96;61.7
63956;BME280;50131;52.084;5.228;2022-07-29T08:01:02;101813.0;;;19.13;59.37
63956;BME280;50131;52.084;5.228;2022-07-29T08:02:50;101819.0;;;19.16;60.42
63956;BME280;50131;52.084;5.228;2022-07-29T08:04:36;101824.0;;;19.25;60.91
63956;BME280;50131;52.084;5.228;2022-07-29T08:06:25;101824.0;;;19.27;60.32
63956;BME280;50131;52.084;5.228;2022-07-29T08:09:57;101826.0;;;19.41;60.61
63956;BME280;50131;52.084;5.228;2022-07-29T08:11:43;101825.0;;;19.22;59.93
63956;BME280;50131;52.084;5.228;2022-07-29T08:13:30;101826.0;;;19.31;59.87
63956;BME280;50131;52.084;5.228;2022-07-29T08:15:16;101822.0;;;19.22;59.71
63956;BME280;50131;52.084;5.228;2022-07-29T08:17:03;101820.0;;;19.18;58.94
63956;BME280;50131;52.084;5.228;2022-07-29T08:18:49;101823.0;;;19.14;60.16
63956;BME280;50131;52.084;5.228;2022-07-29T08:22:23;101821.0;;;19.21;60.49
63956;BME280;50131;52.084;5.228;2022-07-29T08:25:13;101827.0;;;19.27;62.14
63956;BME280;50131;52.084;5.228;2022-07-29T08:26:59;101826.0;;;19.29;59.28
63956;BME280;50131;52.084;5.228;2022-07-29T08:28:46;101826.0;;;19.3;60.94
63956;BME280;50131;52.084;5.228;2022-07-29T08:30:34;101826.0;;;19.36;61.33
63956;BME280;50131;52.084;5.228;2022-07-29T08:32:20;101825.0;;;19.45;60.29
63956;BME280;50131;52.084;5.228;2022-07-29T08:34:09;101824.0;;;19.52;60.71
63956;BME280;50131;52.084;5.228;2022-07-29T08:35:55;101826.0;;;19.62;61.64
63956;BME280;50131;52.084;5.228;2022-07-29T08:37:42;101825.0;;;19.72;59.79
63956;BME280;50131;52.084;5.228;2022-07-29T08:41:15;101823.0;;;19.73;58.69
63956;BME280;50131;52.084;5.228;2022-07-29T08:43:04;101834.0;;;19.91;59.69
63956;BME280;50131;52.084;5.228;2022-07-29T08:44:54;101830.0;;;20.04;59.34
63956;BME280;50131;52.084;5.228;2022-07-29T08:46:41;101830.0;;;20.09;59.07
63956;BME280;50131;52.084;5.228;2022-07-29T08:48:29;101830.0;;;20.12;58.72
63956;BME280;50131;52.084;5.228;2022-07-29T08:50:15;101828.0;;;20.22;58.24
63956;BME280;50131;52.084;5.228;2022-07-29T08:53:49;101828.0;;;20.29;58.08
63956;BME280;50131;52.084;5.228;2022-07-29T08:55:38;101830.0;;;20.41;57.96
63956;BME280;50131;52.084;5.228;2022-07-29T08:57:26;101830.0;;;20.45;58.95
63956;BME280;50131;52.084;5.228;2022-07-29T08:59:13;101830.0;;;20.46;57.48
63956;BME280;50131;52.084;5.228;2022-07-29T09:01:01;101827.0;;;20.53;56.09
63956;BME280;50131;52.084;5.228;2022-07-29T09:02:53;101830.0;;;20.61;56.4
63956;BME280;50131;52.084;5.228;2022-07-29T09:06:33;101833.0;;;20.7;55.76
63956;BME280;50131;52.084;5.228;2022-07-29T09:08:23;101833.0;;;20.81;56.61
63956;BME280;50131;52.084;5.228;2022-07-29T09:10:10;101830.0;;;20.93;56.97
63956;BME280;50131;52.084;5.228;2022-07-29T09:11:58;101835.0;;;20.95;56.45
63956;BME280;50131;52.084;5.228;2022-07-29T09:13:46;101832.0;;;20.99;57.2
63956;BME280;50131;52.084;5.228;2022-07-29T09:15:32;101828.0;;;21.0;55.88
63956;BME280;50131;52.084;5.228;2022-07-29T09:19:28;101814.0;;;21.15;56.29
63956;BME280;50131;52.084;5.228;2022-07-29T09:24:15;101809.0;;;21.24;55.51
63956;BME280;50131;52.084;5.228;2022-07-29T09:26:05;101808.0;;;21.26;55.44
63956;BME280;50131;52.084;5.228;2022-07-29T09:27:51;101806.0;;;21.38;54.19
63956;BME280;50131;52.084;5.228;2022-07-29T09:31:33;101811.0;;;21.47;55.37
63956;BME280;50131;52.084;5.228;2022-07-29T09:33:21;101806.0;;;21.45;55.99
63956;BME280;50131;52.084;5.228;2022-07-29T09:35:17;101801.0;;;21.55;55.85
63956;BME280;50131;52.084;5.228;2022-07-29T09:37:05;101805.0;;;21.6;54.93
63956;BME280;50131;52.084;5.228;2022-07-29T09:38:57;101798.0;;;21.67;55.29
63956;BME280;50131;52.084;5.228;2022-07-29T09:40:56;101797.0;;;21.71;55.1
63956;BME280;50131;52.084;5.228;2022-07-29T09:42:43;101800.0;;;21.78;54.83
63956;BME280;50131;52.084;5.228;2022-07-29T09:46:34;101805.0;;;21.83;55.35
63956;BME280;50131;52.084;5.228;2022-07-29T09:48:24;101811.0;;;21.89;55.0
63956;BME280;50131;52.084;5.228;2022-07-29T09:50:10;101805.0;;;21.95;54.2
63956;BME280;50131;52.084;5.228;2022-07-29T09:52:00;101805.0;;;22.06;52.52
63956;BME280;50131;52.084;5.228;2022-07-29T09:53:50;101805.0;;;22.1;53.66
63956;BME280;50131;52.084;5.228;2022-07-29T09:55:52;101808.0;;;22.18;53.37
63956;BME280;50131;52.084;5.228;2022-07-29T09:57:39;101807.0;;;22.24;54.38
63956;BME280;50131;52.084;5.228;2022-07-29T09:59:26;101811.0;;;22.35;53.62
63956;BME280;50131;52.084;5.228;2022-07-29T10:03:01;101808.0;;;22.44;52.35
63956;BME280;50131;52.084;5.228;2022-07-29T10:04:47;101811.0;;;22.42;51.8
63956;BME280;50131;52.084;5.228;2022-07-29T10:06:35;101806.0;;;22.55;51.83
63956;BME280;50131;52.084;5.228;2022-07-29T10:08:41;101809.0;;;22.64;50.62
63956;BME280;50131;52.084;5.228;2022-07-29T10:10:29;101807.0;;;22.68;52.4
63956;BME280;50131;52.084;5.228;2022-07-29T10:12:19;101805.0;;;22.78;51.72
63956;BME280;50131;52.084;5.228;2022-07-29T10:14:05;101806.0;;;22.87;50.76
63956;BME280;50131;52.084;5.228;2022-07-29T10:17:39;101805.0;;;23.02;52.08
63956;BME280;50131;52.084;5.228;2022-07-29T10:19:28;101802.0;;;23.06;52.29
63956;BME280;50131;52.084;5.228;2022-07-29T10:21:15;101799.0;;;23.18;51.25
63956;BME280;50131;52.084;5.228;2022-07-29T10:23:03;101796.0;;;23.33;49.27
63956;BME280;50131;52.084;5.228;2022-07-29T10:24:50;101799.0;;;23.27;49.72
63956;BME280;50131;52.084;5.228;2022-07-29T10:28:29;101796.0;;;23.42;49.2
63956;BME280;50131;52.084;5.228;2022-07-29T10:32:15;101796.0;;;23.57;49.53
63956;BME280;50131;52.084;5.228;2022-07-29T10:34:12;101796.0;;;23.6;47.69
63956;BME280;50131;52.084;5.228;2022-07-29T10:36:15;101798.0;;;23.63;47.79
63956;BME280;50131;52.084;5.228;2022-07-29T10:38:41;101800.0;;;23.73;47.64
63956;BME280;50131;52.084;5.228;2022-07-29T10:41:58;101800.0;;;23.82;47.43
63956;BME280;50131;52.084;5.228;2022-07-29T10:43:59;101797.0;;;23.94;47.1
63956;BME280;50131;52.084;5.228;2022-07-29T10:45:48;101795.0;;;24.01;46.75
63956;BME280;50131;52.084;5.228;2022-07-29T10:47:36;101794.0;;;24.07;46.6
63956;BME280;50131;52.084;5.228;2022-07-29T10:51:11;101794.0;;;24.21;46.63
63956;BME280;50131;52.084;5.228;2022-07-29T10:52:58;101789.0;;;24.21;45.72
63956;BME280;50131;52.084;5.228;2022-07-29T10:54:48;101792.0;;;24.19;45.07
63956;BME280;50131;52.084;5.228;2022-07-29T10:56:36;101789.0;;;24.29;47.21
63956;BME280;50131;52.084;5.228;2022-07-29T10:58:23;101793.0;;;24.13;48.91
63956;BME280;50131;52.084;5.228;2022-07-29T11:00:29;101792.0;;;24.08;47.83
63956;BME280;50131;52.084;5.228;2022-07-29T11:02:50;101793.0;;;24.18;50.79
63956;BME280;50131;52.084;5.228;2022-07-29T11:05:09;101798.0;;;24.19;48.39
63956;BME280;50131;52.084;5.228;2022-07-29T11:07:08;101795.0;;;24.29;47.52
63956;BME280;50131;52.084;5.228;2022-07-29T11:09:28;101793.0;;;24.18;49.56
63956;BME280;50131;52.084;5.228;2022-07-29T11:13:55;101791.0;;;24.21;46.63
63956;BME280;50131;52.084;5.228;2022-07-29T11:15:57;101786.0;;;24.24;46.14
63956;BME280;50131;52.084;5.228;2022-07-29T11:18:04;101785.0;;;24.34;48.28
63956;BME280;50131;52.084;5.228;2022-07-29T11:19:52;101788.0;;;24.47;49.35
63956;BME280;50131;52.084;5.228;2022-07-29T11:22:31;101788.0;;;24.56;51.68
63956;BME280;50131;52.084;5.228;2022-07-29T11:24:22;101782.0;;;24.6;51.26